createdAt,value
2018-09-20T00:01:14.018Z,17.81
2018-09-20T00:03:49.013Z,17.80
2018-09-20T00:06:26.995Z,17.83
2018-09-20T00:12:00.988Z,17.80
2018-09-20T00:14:35.538Z,17.92
2018-09-20T00:17:10.242Z,17.96
2018-09-20T00:19:44.874Z,17.98
2018-09-20T00:22:19.416Z,18.03
2018-09-20T00:24:53.952Z,17.98
2018-09-20T00:27:28.557Z,17.92
2018-09-20T00:30:03.163Z,17.95
2018-09-20T00:32:37.844Z,17.90
2018-09-20T00:35:12.706Z,17.87
2018-09-20T00:37:47.312Z,17.71
2018-09-20T00:40:21.826Z,17.63
2018-09-20T00:42:56.272Z,17.54
2018-09-20T00:45:30.855Z,17.49
2018-09-20T00:48:05.759Z,17.44
2018-09-20T00:50:40.231Z,17.42
2018-09-20T00:53:14.853Z,17.39
2018-09-20T00:55:49.542Z,17.39
2018-09-20T00:58:24.202Z,17.43
2018-09-20T01:00:58.736Z,17.52
2018-09-20T01:03:33.511Z,17.59
2018-09-20T01:06:08.136Z,17.52
2018-09-20T01:08:42.672Z,17.47
2018-09-20T01:11:17.692Z,17.34
2018-09-20T01:13:52.283Z,17.31
2018-09-20T01:16:26.889Z,17.23
2018-09-20T01:19:01.346Z,17.26
2018-09-20T01:21:35.853Z,17.20
2018-09-20T01:24:10.565Z,17.16
2018-09-20T01:26:45.282Z,17.11
2018-09-20T01:29:19.825Z,17.09
2018-09-20T01:31:54.532Z,17.09
2018-09-20T01:34:29.261Z,17.13
2018-09-20T01:37:03.789Z,17.19
2018-09-20T01:39:38.474Z,17.15
2018-09-20T01:42:13.023Z,17.16
2018-09-20T01:44:47.481Z,17.11
2018-09-20T01:47:21.924Z,17.18
2018-09-20T01:49:56.471Z,17.19
2018-09-20T01:52:31.300Z,17.29
2018-09-20T01:55:06.015Z,17.29
2018-09-20T01:57:40.738Z,17.36
2018-09-20T02:00:15.365Z,17.32
2018-09-20T02:02:50.134Z,17.27
2018-09-20T02:05:24.867Z,17.13
2018-09-20T02:07:59.343Z,17.08
2018-09-20T02:10:34.020Z,17.03
2018-09-20T02:13:08.688Z,17.06
2018-09-20T02:15:43.308Z,17.05
2018-09-20T02:18:17.964Z,16.99
2018-09-20T02:20:52.729Z,17.03
2018-09-20T02:23:27.237Z,16.99
2018-09-20T02:26:01.909Z,16.95
2018-09-20T02:28:36.617Z,16.87
2018-09-20T02:31:11.248Z,16.87
2018-09-20T02:33:46.020Z,16.82
2018-09-20T02:36:20.613Z,16.81
2018-09-20T02:38:55.205Z,16.88
2018-09-20T02:41:29.873Z,16.85
2018-09-20T02:44:04.832Z,16.85
2018-09-20T02:46:39.557Z,16.94
2018-09-20T02:49:14.193Z,16.93
2018-09-20T02:51:48.748Z,16.89
2018-09-20T02:54:23.265Z,16.83
2018-09-20T02:56:57.899Z,16.70
2018-09-20T02:59:32.769Z,16.76
2018-09-20T03:02:07.426Z,16.81
2018-09-20T03:04:42.005Z,16.81
2018-09-20T03:07:16.491Z,16.73
2018-09-20T03:09:51.251Z,16.74
2018-09-20T03:12:25.789Z,16.69
2018-09-20T03:15:00.280Z,16.67
2018-09-20T03:17:54.853Z,16.63
2018-09-20T03:20:29.423Z,16.62
2018-09-20T03:23:04.029Z,16.57
2018-09-20T03:25:38.696Z,16.52
2018-09-20T03:28:13.249Z,16.64
2018-09-20T03:30:47.996Z,16.71
2018-09-20T03:33:22.625Z,16.66
2018-09-20T03:35:57.207Z,16.62
2018-09-20T03:38:31.897Z,16.62
2018-09-20T03:41:06.451Z,16.62
2018-09-20T03:43:41.082Z,16.65
2018-09-20T03:46:15.648Z,16.61
2018-09-20T03:48:50.180Z,16.52
2018-09-20T03:51:24.902Z,16.53
2018-09-20T03:53:59.682Z,16.53
2018-09-20T03:56:34.936Z,16.55
2018-09-20T03:59:09.666Z,16.54
2018-09-20T04:01:44.320Z,16.45
2018-09-20T04:04:18.942Z,16.41
2018-09-20T04:06:53.590Z,16.46
2018-09-20T04:09:28.369Z,16.40
2018-09-20T04:12:03.024Z,16.43
2018-09-20T04:14:37.769Z,16.38
2018-09-20T04:17:12.471Z,16.33
2018-09-20T04:19:47.163Z,16.29
2018-09-20T04:22:21.812Z,16.34
2018-09-20T04:24:56.352Z,16.34
2018-09-20T04:27:31.159Z,16.25
2018-09-20T04:30:06.012Z,16.25
2018-09-20T04:32:40.814Z,16.24
2018-09-20T04:35:15.457Z,16.22
2018-09-20T04:37:49.982Z,16.31
2018-09-20T04:40:24.644Z,16.40
2018-09-20T04:42:59.281Z,16.38
2018-09-20T04:45:33.880Z,16.28
2018-09-20T04:48:08.328Z,16.28
2018-09-20T04:50:42.913Z,16.34
2018-09-20T04:53:17.483Z,16.30
2018-09-20T04:55:52.247Z,16.27
2018-09-20T04:58:26.845Z,16.26
2018-09-20T05:01:01.377Z,16.26
2018-09-20T05:03:35.788Z,16.36
2018-09-20T05:06:10.377Z,16.38
2018-09-20T05:08:45.037Z,16.37
2018-09-20T05:11:19.498Z,16.37
2018-09-20T05:13:53.961Z,16.35
2018-09-20T05:16:28.461Z,16.46
2018-09-20T05:19:03.179Z,16.48
2018-09-20T05:21:37.692Z,16.51
2018-09-20T05:24:12.313Z,16.58
2018-09-20T05:26:47.055Z,16.59
2018-09-20T05:29:21.651Z,16.59
2018-09-20T05:31:56.253Z,16.65
2018-09-20T05:34:30.941Z,16.69
2018-09-20T05:37:05.557Z,16.72
2018-09-20T05:39:40.177Z,16.76
2018-09-20T05:42:14.809Z,16.80
2018-09-20T05:44:49.441Z,16.82
2018-09-20T05:47:24.070Z,16.88
2018-09-20T05:49:58.684Z,16.89
2018-09-20T05:52:33.229Z,16.96
2018-09-20T05:55:07.755Z,16.97
2018-09-20T05:57:42.205Z,17.02
2018-09-20T06:00:17.064Z,17.12
2018-09-20T06:02:51.545Z,17.12
2018-09-20T06:05:26.055Z,17.19
2018-09-20T06:08:00.690Z,17.14
2018-09-20T06:10:35.440Z,17.12
2018-09-20T06:13:10.136Z,17.16
2018-09-20T06:15:44.745Z,17.02
2018-09-20T06:18:19.557Z,17.11
2018-09-20T06:20:54.047Z,17.33
2018-09-20T06:23:28.701Z,17.38
2018-09-20T06:26:03.137Z,17.55
2018-09-20T06:28:37.658Z,17.56
2018-09-20T06:31:12.225Z,17.69
2018-09-20T06:33:46.653Z,17.74
2018-09-20T06:36:21.238Z,17.91
2018-09-20T06:38:55.784Z,18.56
2018-09-20T06:41:30.634Z,19.77
2018-09-20T06:44:05.157Z,21.08
2018-09-20T06:46:39.934Z,23.01
2018-09-20T06:49:14.593Z,24.05
2018-09-20T06:51:49.307Z,25.64
2018-09-20T06:54:29.872Z,27.26
2018-09-20T06:57:08.298Z,27.45
2018-09-20T06:59:43.163Z,28.71
2018-09-20T07:02:17.762Z,29.08
2018-09-20T07:04:52.301Z,30.61
2018-09-20T07:07:26.831Z,30.33
2018-09-20T07:10:01.761Z,30.51
2018-09-20T07:12:36.489Z,31.40
2018-09-20T07:15:11.022Z,30.70
2018-09-20T07:17:46.323Z,31.41
2018-09-20T07:20:20.991Z,31.41
2018-09-20T07:22:55.700Z,28.10
2018-09-20T07:25:31.034Z,27.62
2018-09-20T07:28:05.490Z,25.13
2018-09-20T07:34:03.412Z,24.62
2018-09-20T07:36:38.935Z,24.88
2018-09-20T07:39:14.147Z,24.93
2018-09-20T07:41:50.300Z,24.28
2018-09-20T07:44:25.282Z,24.18
2018-09-20T07:49:39.385Z,23.03
2018-09-20T07:52:14.240Z,22.90
2018-09-20T07:54:48.654Z,22.15
2018-09-20T07:57:26.070Z,21.27
2018-09-20T08:00:02.320Z,21.69
2018-09-20T08:02:37.451Z,22.09
2018-09-20T08:05:12.016Z,21.34
2018-09-20T08:07:46.568Z,21.19
2018-09-20T08:10:22.074Z,21.51
2018-09-20T08:12:56.686Z,21.30
2018-09-20T08:15:31.140Z,21.23
2018-09-20T08:18:05.689Z,21.92
2018-09-20T08:20:40.270Z,21.79
2018-09-20T08:23:14.924Z,22.17
2018-09-20T08:25:49.528Z,21.90
2018-09-20T08:28:24.009Z,21.97
2018-09-20T08:30:58.653Z,21.54
2018-09-20T08:33:33.344Z,21.79
2018-09-20T08:36:07.876Z,21.91
2018-09-20T08:38:42.485Z,22.15
2018-09-20T08:41:17.172Z,22.16
2018-09-20T08:43:51.696Z,22.41
2018-09-20T08:46:26.120Z,22.23
2018-09-20T08:49:00.887Z,22.22
2018-09-20T08:51:35.385Z,22.63
2018-09-20T08:54:09.920Z,22.41
2018-09-20T08:56:44.462Z,22.50
2018-09-20T08:59:18.962Z,22.78
2018-09-20T09:01:53.729Z,23.24
2018-09-20T09:10:27.088Z,23.64
2018-09-20T09:13:01.664Z,23.63
2018-09-20T09:15:36.161Z,23.57
2018-09-20T09:21:14.064Z,23.10
2018-09-20T09:23:48.640Z,22.83
2018-09-20T09:26:23.127Z,23.00
2018-09-20T09:28:57.646Z,22.63
2018-09-20T09:31:32.357Z,22.99
2018-09-20T09:34:06.975Z,23.00
2018-09-20T09:36:41.585Z,22.89
2018-09-20T09:39:16.216Z,23.01
2018-09-20T09:41:50.647Z,22.58
2018-09-20T09:44:25.188Z,22.99
2018-09-20T09:46:59.768Z,23.78
2018-09-20T09:49:34.331Z,23.38
2018-09-20T09:52:09.041Z,23.55
2018-09-20T09:54:43.492Z,23.35
2018-09-20T09:57:18.176Z,23.80
2018-09-20T09:59:52.819Z,24.07
2018-09-20T10:02:27.500Z,23.14
2018-09-20T10:05:02.137Z,23.04
2018-09-20T10:07:36.521Z,23.13
2018-09-20T10:10:10.884Z,22.99
2018-09-20T10:12:45.625Z,23.46
2018-09-20T10:15:20.234Z,23.60
2018-09-20T10:17:54.620Z,23.69
2018-09-20T10:20:29.185Z,23.48
2018-09-20T10:23:03.716Z,23.53
2018-09-20T10:25:38.568Z,23.58
2018-09-20T10:28:13.145Z,23.83
2018-09-20T10:30:53.444Z,23.48
2018-09-20T10:33:41.708Z,23.37
2018-09-20T10:36:16.079Z,23.30
2018-09-20T10:38:50.400Z,23.61
2018-09-20T10:41:24.700Z,23.22
2018-09-20T10:43:59.090Z,23.76
2018-09-20T10:46:33.503Z,23.98
2018-09-20T10:49:07.888Z,24.29
2018-09-20T10:51:42.356Z,24.47
2018-09-20T10:54:16.789Z,24.22
2018-09-20T10:56:51.033Z,23.96
2018-09-20T10:59:25.463Z,23.71
2018-09-20T11:02:00.096Z,23.90
2018-09-20T11:04:34.427Z,23.80
2018-09-20T11:07:08.731Z,24.35
2018-09-20T11:09:43.182Z,24.27
2018-09-20T11:12:17.591Z,23.87
2018-09-20T11:14:51.959Z,24.03
2018-09-20T11:17:26.239Z,23.82
2018-09-20T11:20:00.507Z,23.92
2018-09-20T11:22:34.891Z,23.89
2018-09-20T11:25:09.581Z,24.03
2018-09-20T11:27:43.995Z,24.20
2018-09-20T11:30:18.376Z,24.60
2018-09-20T11:32:52.786Z,24.49
2018-09-20T11:35:27.195Z,24.34
2018-09-20T11:38:01.916Z,24.15
2018-09-20T11:40:36.131Z,24.10
2018-09-20T11:43:10.719Z,24.53
2018-09-20T11:45:45.128Z,24.68
2018-09-20T11:48:19.920Z,24.71
2018-09-20T11:50:54.252Z,24.73
2018-09-20T11:53:28.599Z,25.16
2018-09-20T11:56:03.024Z,25.02
2018-09-20T11:58:37.399Z,25.05
2018-09-20T12:04:15.284Z,24.97
2018-09-20T12:06:49.620Z,24.85
2018-09-20T12:09:23.965Z,24.76
2018-09-20T12:11:58.360Z,24.75
2018-09-20T12:14:32.762Z,25.22
2018-09-20T12:17:07.024Z,24.83
2018-09-20T12:19:41.407Z,25.04
2018-09-20T12:22:15.828Z,24.95
2018-09-20T12:24:50.284Z,25.17
2018-09-20T12:30:32.631Z,25.10
2018-09-20T12:33:06.967Z,24.94
2018-09-20T12:35:41.389Z,25.06
2018-09-20T12:38:15.777Z,24.88
2018-09-20T12:40:50.167Z,25.01
2018-09-20T12:43:24.554Z,25.12
2018-09-20T12:45:58.936Z,24.93
2018-09-20T12:48:33.304Z,25.09
2018-09-20T12:51:08.120Z,24.84
2018-09-20T12:53:42.610Z,25.09
2018-09-20T12:56:16.967Z,25.12
2018-09-20T12:58:52.076Z,25.08
2018-09-20T13:01:26.403Z,25.29
2018-09-20T13:04:00.823Z,25.23
2018-09-20T13:06:35.256Z,25.41
2018-09-20T13:09:10.491Z,25.32
2018-09-20T13:11:44.932Z,25.18
2018-09-20T13:14:19.290Z,25.16
2018-09-20T13:16:53.503Z,25.30
2018-09-20T13:19:27.900Z,25.35
2018-09-20T13:22:02.403Z,25.42
2018-09-20T13:24:36.788Z,25.43
2018-09-20T13:27:11.202Z,25.50
2018-09-20T13:29:45.527Z,25.26
2018-09-20T13:32:19.888Z,25.26
2018-09-20T13:34:54.235Z,25.13
2018-09-20T13:37:28.659Z,25.36
2018-09-20T13:40:03.207Z,25.53
2018-09-20T13:42:37.578Z,25.64
2018-09-20T13:45:11.999Z,25.57
2018-09-20T13:47:46.302Z,25.62
2018-09-20T13:50:20.655Z,25.61
2018-09-20T13:52:55.084Z,25.65
2018-09-20T13:55:29.507Z,25.69
2018-09-20T13:58:03.757Z,25.69
2018-09-20T14:00:38.132Z,25.83
2018-09-20T14:03:12.503Z,25.92
2018-09-20T14:05:47.182Z,25.90
2018-09-20T14:08:21.528Z,26.00
2018-09-20T14:10:55.849Z,25.99
2018-09-20T14:13:30.237Z,25.85
2018-09-20T14:16:04.754Z,25.81
2018-09-20T14:18:39.155Z,25.86
2018-09-20T14:21:13.500Z,25.87
2018-09-20T14:23:47.851Z,25.91
2018-09-20T14:26:22.281Z,25.85
2018-09-20T14:28:56.648Z,26.17
2018-09-20T14:31:31.025Z,26.72
2018-09-20T14:34:05.303Z,26.85
2018-09-20T14:36:39.700Z,27.29
2018-09-20T14:39:14.096Z,27.84
2018-09-20T14:41:48.592Z,28.21
2018-09-20T14:44:22.963Z,28.40
2018-09-20T14:46:57.156Z,28.63
2018-09-20T14:49:31.607Z,28.82
2018-09-20T14:52:06.107Z,29.23
2018-09-20T14:54:40.367Z,29.54
2018-09-20T14:57:14.803Z,29.46
2018-09-20T14:59:49.038Z,29.56
2018-09-20T15:02:23.306Z,29.46
2018-09-20T15:04:57.777Z,29.34
2018-09-20T15:07:32.164Z,28.63
2018-09-20T15:10:06.600Z,28.49
2018-09-20T15:12:40.967Z,28.21
2018-09-20T15:15:15.283Z,27.81
2018-09-20T15:17:49.719Z,27.09
2018-09-20T15:20:24.047Z,27.07
2018-09-20T15:22:58.468Z,26.96
2018-09-20T15:25:32.813Z,26.66
2018-09-20T15:28:07.175Z,26.45
2018-09-20T15:30:41.851Z,26.39
2018-09-20T15:33:16.349Z,26.59
2018-09-20T15:35:50.616Z,26.54
2018-09-20T15:38:24.843Z,26.76
2018-09-20T15:40:59.223Z,26.29
2018-09-20T15:43:33.613Z,26.26
2018-09-20T15:46:08.430Z,26.03
2018-09-20T15:48:42.895Z,25.96
2018-09-20T15:51:17.353Z,25.96
2018-09-20T15:53:51.732Z,26.26
2018-09-20T15:56:26.213Z,26.64
2018-09-20T15:59:00.658Z,26.59
2018-09-20T16:01:35.387Z,26.50
2018-09-20T16:04:09.835Z,26.52
2018-09-20T16:06:44.239Z,26.60
2018-09-20T16:09:18.684Z,26.60
2018-09-20T16:11:53.131Z,26.48
2018-09-20T16:17:37.585Z,26.40
2018-09-20T16:20:11.823Z,26.26
2018-09-20T16:22:46.240Z,26.29
2018-09-20T16:25:21.299Z,26.17
2018-09-20T16:27:59.208Z,25.84
2018-09-20T16:32:43.374Z,25.53
2018-09-20T16:35:24.656Z,25.11
2018-09-20T16:38:20.215Z,24.84
2018-09-20T16:40:58.505Z,24.70
2018-09-20T16:43:33.243Z,24.62
2018-09-20T16:46:07.599Z,24.46
2018-09-20T16:48:41.988Z,24.24
2018-09-20T16:51:16.373Z,24.15
2018-09-20T16:53:50.787Z,23.95
2018-09-20T16:56:25.043Z,23.84
2018-09-20T16:58:59.284Z,23.69
2018-09-20T17:01:33.717Z,23.60
2018-09-20T17:04:08.309Z,23.50
2018-09-20T17:06:42.758Z,23.47
2018-09-20T17:09:17.170Z,23.38
2018-09-20T17:11:51.705Z,23.28
2018-09-20T17:14:26.226Z,23.16
2018-09-20T17:17:00.818Z,23.04
2018-09-20T17:19:35.358Z,22.98
2018-09-20T17:22:09.916Z,22.96
2018-09-20T17:24:44.413Z,22.97
2018-09-20T17:27:18.960Z,22.92
2018-09-20T17:29:53.420Z,22.86
2018-09-20T17:32:28.081Z,22.80
2018-09-20T17:35:02.825Z,22.75
2018-09-20T17:37:38.828Z,22.78
2018-09-20T17:40:14.310Z,22.77
2018-09-20T17:42:50.173Z,22.75
2018-09-20T17:45:24.611Z,22.74
2018-09-20T17:47:59.192Z,22.73
2018-09-20T17:50:33.785Z,22.71
2018-09-20T17:53:08.800Z,22.69
2018-09-20T17:55:43.868Z,22.61
2018-09-20T17:58:19.527Z,22.61
2018-09-20T18:00:54.007Z,22.65
2018-09-20T18:03:28.497Z,22.63
2018-09-20T18:06:03.089Z,22.56
2018-09-20T18:08:43.380Z,22.43
2018-09-20T18:11:17.894Z,22.34
2018-09-20T18:13:52.377Z,22.34
2018-09-20T18:16:26.818Z,22.36
2018-09-20T18:19:01.345Z,22.36
2018-09-20T18:21:35.934Z,22.41
2018-09-20T18:24:10.441Z,22.37
2018-09-20T18:26:44.979Z,22.37
2018-09-20T18:29:19.423Z,22.34
2018-09-20T18:31:53.816Z,22.36
2018-09-20T18:34:28.651Z,22.29
2018-09-20T18:37:03.148Z,22.22
2018-09-20T18:39:37.920Z,22.06
2018-09-20T18:42:12.411Z,22.10
2018-09-20T18:44:47.032Z,22.07
2018-09-20T18:47:21.611Z,22.12
2018-09-20T18:49:56.150Z,22.10
2018-09-20T18:52:30.763Z,22.07
2018-09-20T18:55:06.124Z,22.01
2018-09-20T18:57:40.664Z,22.09
2018-09-20T19:00:15.497Z,22.07
2018-09-20T19:02:50.155Z,22.10
2018-09-20T19:05:24.729Z,22.05
2018-09-20T19:07:59.361Z,22.04
2018-09-20T19:10:33.965Z,22.05
2018-09-20T19:13:08.493Z,21.96
2018-09-20T19:15:43.071Z,21.93
2018-09-20T19:18:17.556Z,21.96
2018-09-20T19:20:52.184Z,21.99
2018-09-20T19:23:26.865Z,21.95
2018-09-20T19:26:01.477Z,21.94
2018-09-20T19:28:36.013Z,21.96
2018-09-20T19:31:10.413Z,21.94
2018-09-20T19:33:44.980Z,21.93
2018-09-20T19:36:19.519Z,21.81
2018-09-20T19:38:54.303Z,21.77
2018-09-20T19:41:28.818Z,21.83
2018-09-20T19:44:03.438Z,21.86
2018-09-20T19:46:37.908Z,21.85
2018-09-20T19:49:12.382Z,21.79
2018-09-20T19:51:46.864Z,21.72
2018-09-20T19:54:21.469Z,21.64
2018-09-20T19:56:55.887Z,21.56
2018-09-20T19:59:30.399Z,21.54
2018-09-20T20:02:04.941Z,21.57
2018-09-20T20:04:39.478Z,21.57
2018-09-20T20:07:14.148Z,21.54
2018-09-20T20:09:48.774Z,21.53
2018-09-20T20:12:23.268Z,21.53
2018-09-20T20:14:57.752Z,21.61
2018-09-20T20:17:32.374Z,21.54
2018-09-20T20:20:07.005Z,21.53
2018-09-20T20:22:41.672Z,21.51
2018-09-20T20:25:16.162Z,21.50
2018-09-20T20:27:50.801Z,21.49
2018-09-20T20:30:25.437Z,21.48
2018-09-20T20:33:00.053Z,21.53
2018-09-20T20:35:35.352Z,21.58
2018-09-20T20:38:09.867Z,21.54
2018-09-20T20:40:44.325Z,21.47
2018-09-20T20:43:18.900Z,21.43
2018-09-20T20:45:53.456Z,21.36
2018-09-20T20:48:27.981Z,21.25
2018-09-20T20:51:02.640Z,21.29
2018-09-20T20:53:37.308Z,21.30
2018-09-20T20:56:11.812Z,21.32
2018-09-20T20:58:51.290Z,21.27
2018-09-20T21:01:30.880Z,21.15
2018-09-20T21:04:05.337Z,21.05
2018-09-20T21:06:39.808Z,21.01
2018-09-20T21:09:14.298Z,21.01
2018-09-20T21:11:48.856Z,21.04
2018-09-20T21:14:32.009Z,20.99
2018-09-20T21:17:06.617Z,20.93
2018-09-20T21:19:41.167Z,20.98
2018-09-20T21:22:15.808Z,20.94
2018-09-20T21:24:50.422Z,20.85
2018-09-20T21:27:25.112Z,20.77
2018-09-20T21:30:03.614Z,20.76
2018-09-20T21:32:47.871Z,20.69
2018-09-20T21:35:22.395Z,20.71
2018-09-20T21:37:56.828Z,20.70
2018-09-20T21:40:31.381Z,20.75
2018-09-20T21:43:06.207Z,20.79
2018-09-20T21:45:40.705Z,20.73
2018-09-20T21:48:15.256Z,20.71
2018-09-20T21:50:49.693Z,20.69
2018-09-20T21:53:24.021Z,20.67
2018-09-20T21:55:58.435Z,20.71
2018-09-20T21:58:33.129Z,20.66
2018-09-20T22:01:11.768Z,20.68
2018-09-20T22:03:46.158Z,20.70
2018-09-20T22:06:20.598Z,20.67
2018-09-20T22:08:55.189Z,20.68
2018-09-20T22:11:47.677Z,20.65
2018-09-20T22:14:22.367Z,20.62
2018-09-20T22:16:57.127Z,20.62
2018-09-20T22:19:31.783Z,20.59
2018-09-20T22:22:06.369Z,20.61
2018-09-20T22:24:41.052Z,20.64
2018-09-20T22:27:15.796Z,20.65
2018-09-20T22:29:50.292Z,20.64
2018-09-20T22:32:24.680Z,20.65
2018-09-20T22:34:59.265Z,20.57
2018-09-20T22:37:33.705Z,20.54
2018-09-20T22:40:08.056Z,20.43
2018-09-20T22:42:43.329Z,20.41
2018-09-20T22:45:17.972Z,20.40
2018-09-20T22:47:52.487Z,20.39
2018-09-20T22:50:26.937Z,20.35
2018-09-20T22:53:01.336Z,20.36
2018-09-20T22:55:35.913Z,20.39
2018-09-20T22:58:10.249Z,20.34
2018-09-20T23:00:44.817Z,20.34
2018-09-20T23:03:19.340Z,20.33
2018-09-20T23:05:53.957Z,20.30
2018-09-20T23:08:28.398Z,20.27
2018-09-20T23:11:03.009Z,20.28
2018-09-20T23:13:37.501Z,20.25
2018-09-20T23:16:12.084Z,20.23
2018-09-20T23:18:46.618Z,20.18
2018-09-20T23:21:21.125Z,20.13
2018-09-20T23:23:55.489Z,20.12
2018-09-20T23:26:30.001Z,20.13
2018-09-20T23:29:04.522Z,20.21
2018-09-20T23:31:39.353Z,20.15
2018-09-20T23:34:14.999Z,20.18
2018-09-20T23:36:49.674Z,20.22
2018-09-20T23:39:24.333Z,20.14
2018-09-20T23:41:58.828Z,20.11
2018-09-20T23:44:33.415Z,20.21
2018-09-20T23:47:07.921Z,20.21
2018-09-20T23:49:42.557Z,20.10
2018-09-20T23:52:17.265Z,20.04
2018-09-20T23:54:51.871Z,20.11
2018-09-20T23:57:26.414Z,20.17
